sensor_id;sensor_type;location;lat;lon;timestamp;P1;durP1;ratioP1;P2;durP2;ratioP2
43363;SDS011;40636;52.424;-1.948;2023-07-02T00:01:53;13.15;;;4.00;;
43363;SDS011;40636;52.424;-1.948;2023-07-02T00:04:20;8.88;;;3.80;;
43363;SDS011;40636;52.424;-1.948;2023-07-02T00:06:47;13.20;;;3.92;;
43363;SDS011;40636;52.424;-1.948;2023-07-02T00:09:15;13.45;;;5.18;;
43363;SDS011;40636;52.424;-1.948;2023-07-02T00:11:43;9.45;;;4.53;;
43363;SDS011;40636;52.424;-1.948;2023-07-02T00:14:14;11.95;;;4.47;;
43363;SDS011;40636;52.424;-1.948;2023-07-02T00:16:44;10.13;;;3.85;;
43363;SDS011;40636;52.424;-1.948;2023-07-02T00:19:16;9.88;;;4.03;;
43363;SDS011;40636;52.424;-1.948;2023-07-02T00:21:43;8.52;;;3.92;;
43363;SDS011;40636;52.424;-1.948;2023-07-02T00:24:09;16.30;;;5.63;;
43363;SDS011;40636;52.424;-1.948;2023-07-02T00:26:36;12.30;;;4.72;;
43363;SDS011;40636;52.424;-1.948;2023-07-02T00:29:04;10.10;;;4.38;;
43363;SDS011;40636;52.424;-1.948;2023-07-02T00:31:32;11.38;;;3.90;;
43363;SDS011;40636;52.424;-1.948;2023-07-02T00:34:00;13.10;;;5.43;;
43363;SDS011;40636;52.424;-1.948;2023-07-02T00:36:30;10.32;;;4.85;;
43363;SDS011;40636;52.424;-1.948;2023-07-02T00:38:58;11.80;;;5.55;;
43363;SDS011;40636;52.424;-1.948;2023-07-02T00:41:25;9.93;;;3.95;;
43363;SDS011;40636;52.424;-1.948;2023-07-02T00:43:53;14.05;;;4.25;;
43363;SDS011;40636;52.424;-1.948;2023-07-02T00:46:22;13.15;;;4.15;;
43363;SDS011;40636;52.424;-1.948;2023-07-02T00:48:50;11.35;;;4.18;;
43363;SDS011;40636;52.424;-1.948;2023-07-02T00:51:19;9.63;;;3.90;;
43363;SDS011;40636;52.424;-1.948;2023-07-02T00:53:47;10.70;;;5.07;;
43363;SDS011;40636;52.424;-1.948;2023-07-02T00:56:15;11.60;;;4.45;;
43363;SDS011;40636;52.424;-1.948;2023-07-02T00:58:43;11.50;;;3.60;;
43363;SDS011;40636;52.424;-1.948;2023-07-02T01:01:15;11.52;;;5.18;;
43363;SDS011;40636;52.424;-1.948;2023-07-02T01:03:52;11.77;;;4.30;;
43363;SDS011;40636;52.424;-1.948;2023-07-02T01:06:23;11.82;;;3.72;;
43363;SDS011;40636;52.424;-1.948;2023-07-02T01:09:02;9.50;;;4.32;;
43363;SDS011;40636;52.424;-1.948;2023-07-02T01:11:49;14.57;;;5.32;;
43363;SDS011;40636;52.424;-1.948;2023-07-02T01:14:27;12.65;;;4.20;;
43363;SDS011;40636;52.424;-1.948;2023-07-02T01:16:57;10.02;;;4.53;;
43363;SDS011;40636;52.424;-1.948;2023-07-02T01:19:48;11.10;;;4.57;;
43363;SDS011;40636;52.424;-1.948;2023-07-02T01:22:20;16.63;;;5.25;;
43363;SDS011;40636;52.424;-1.948;2023-07-02T01:24:57;12.00;;;4.55;;
43363;SDS011;40636;52.424;-1.948;2023-07-02T01:27:24;16.95;;;5.35;;
43363;SDS011;40636;52.424;-1.948;2023-07-02T01:29:54;10.23;;;4.43;;
43363;SDS011;40636;52.424;-1.948;2023-07-02T01:32:22;10.73;;;4.75;;
43363;SDS011;40636;52.424;-1.948;2023-07-02T01:34:49;15.35;;;4.93;;
43363;SDS011;40636;52.424;-1.948;2023-07-02T01:37:20;10.60;;;5.18;;
43363;SDS011;40636;52.424;-1.948;2023-07-02T01:39:47;11.32;;;5.03;;
43363;SDS011;40636;52.424;-1.948;2023-07-02T01:42:14;15.77;;;5.55;;
43363;SDS011;40636;52.424;-1.948;2023-07-02T01:44:43;9.23;;;4.50;;
43363;SDS011;40636;52.424;-1.948;2023-07-02T01:47:10;13.57;;;5.57;;
43363;SDS011;40636;52.424;-1.948;2023-07-02T01:49:37;11.60;;;5.30;;
43363;SDS011;40636;52.424;-1.948;2023-07-02T01:52:04;11.60;;;4.70;;
43363;SDS011;40636;52.424;-1.948;2023-07-02T01:54:32;12.43;;;4.75;;
43363;SDS011;40636;52.424;-1.948;2023-07-02T01:57:03;13.02;;;4.78;;
43363;SDS011;40636;52.424;-1.948;2023-07-02T01:59:30;11.27;;;4.90;;
43363;SDS011;40636;52.424;-1.948;2023-07-02T02:01:57;13.75;;;5.13;;
43363;SDS011;40636;52.424;-1.948;2023-07-02T02:04:23;11.00;;;4.10;;
43363;SDS011;40636;52.424;-1.948;2023-07-02T02:06:50;19.92;;;6.97;;
43363;SDS011;40636;52.424;-1.948;2023-07-02T02:09:18;13.77;;;4.60;;
43363;SDS011;40636;52.424;-1.948;2023-07-02T02:11:47;13.23;;;5.03;;
43363;SDS011;40636;52.424;-1.948;2023-07-02T02:14:16;9.50;;;4.50;;
43363;SDS011;40636;52.424;-1.948;2023-07-02T02:16:43;11.02;;;4.20;;
43363;SDS011;40636;52.424;-1.948;2023-07-02T02:19:14;11.13;;;4.20;;
43363;SDS011;40636;52.424;-1.948;2023-07-02T02:21:41;15.27;;;4.97;;
43363;SDS011;40636;52.424;-1.948;2023-07-02T02:24:08;15.23;;;5.28;;
43363;SDS011;40636;52.424;-1.948;2023-07-02T02:26:35;10.40;;;3.83;;
43363;SDS011;40636;52.424;-1.948;2023-07-02T02:29:02;10.75;;;4.90;;
43363;SDS011;40636;52.424;-1.948;2023-07-02T02:31:29;8.50;;;3.70;;
43363;SDS011;40636;52.424;-1.948;2023-07-02T02:33:57;15.18;;;4.32;;
43363;SDS011;40636;52.424;-1.948;2023-07-02T02:36:24;12.68;;;4.68;;
43363;SDS011;40636;52.424;-1.948;2023-07-02T02:38:50;9.32;;;4.22;;
43363;SDS011;40636;52.424;-1.948;2023-07-02T02:41:17;12.43;;;4.40;;
43363;SDS011;40636;52.424;-1.948;2023-07-02T02:43:44;9.70;;;4.68;;
43363;SDS011;40636;52.424;-1.948;2023-07-02T02:46:11;9.15;;;3.92;;
43363;SDS011;40636;52.424;-1.948;2023-07-02T02:48:38;10.35;;;4.20;;
43363;SDS011;40636;52.424;-1.948;2023-07-02T02:51:05;12.25;;;5.18;;
43363;SDS011;40636;52.424;-1.948;2023-07-02T02:53:32;15.50;;;5.00;;
43363;SDS011;40636;52.424;-1.948;2023-07-02T02:55:59;8.20;;;4.00;;
43363;SDS011;40636;52.424;-1.948;2023-07-02T02:58:26;12.95;;;4.55;;
43363;SDS011;40636;52.424;-1.948;2023-07-02T03:00:54;14.65;;;5.18;;
43363;SDS011;40636;52.424;-1.948;2023-07-02T03:03:21;10.95;;;3.58;;
43363;SDS011;40636;52.424;-1.948;2023-07-02T03:05:51;10.23;;;3.88;;
43363;SDS011;40636;52.424;-1.948;2023-07-02T03:08:17;9.73;;;3.90;;
43363;SDS011;40636;52.424;-1.948;2023-07-02T03:10:44;9.48;;;4.15;;
43363;SDS011;40636;52.424;-1.948;2023-07-02T03:13:11;11.93;;;4.35;;
43363;SDS011;40636;52.424;-1.948;2023-07-02T03:15:38;10.30;;;4.35;;
43363;SDS011;40636;52.424;-1.948;2023-07-02T03:18:05;10.10;;;4.28;;
43363;SDS011;40636;52.424;-1.948;2023-07-02T03:20:32;7.68;;;3.45;;
43363;SDS011;40636;52.424;-1.948;2023-07-02T03:22:59;12.07;;;4.63;;
43363;SDS011;40636;52.424;-1.948;2023-07-02T03:25:26;9.40;;;4.10;;
43363;SDS011;40636;52.424;-1.948;2023-07-02T03:27:53;10.63;;;4.32;;
43363;SDS011;40636;52.424;-1.948;2023-07-02T03:30:20;13.05;;;4.18;;
43363;SDS011;40636;52.424;-1.948;2023-07-02T03:32:47;7.68;;;3.65;;
43363;SDS011;40636;52.424;-1.948;2023-07-02T03:35:14;9.30;;;3.90;;
43363;SDS011;40636;52.424;-1.948;2023-07-02T03:37:41;7.93;;;3.80;;
43363;SDS011;40636;52.424;-1.948;2023-07-02T03:40:10;10.82;;;3.78;;
43363;SDS011;40636;52.424;-1.948;2023-07-02T03:42:37;14.00;;;4.47;;
43363;SDS011;40636;52.424;-1.948;2023-07-02T03:45:04;11.07;;;4.07;;
43363;SDS011;40636;52.424;-1.948;2023-07-02T03:47:31;11.88;;;4.53;;
43363;SDS011;40636;52.424;-1.948;2023-07-02T03:49:58;9.43;;;4.07;;
43363;SDS011;40636;52.424;-1.948;2023-07-02T03:52:25;8.95;;;4.90;;
43363;SDS011;40636;52.424;-1.948;2023-07-02T03:54:51;10.40;;;3.88;;
43363;SDS011;40636;52.424;-1.948;2023-07-02T03:57:18;11.85;;;3.92;;
43363;SDS011;40636;52.424;-1.948;2023-07-02T03:59:45;9.57;;;4.55;;
43363;SDS011;40636;52.424;-1.948;2023-07-02T04:02:12;13.50;;;5.22;;
43363;SDS011;40636;52.424;-1.948;2023-07-02T04:04:39;11.18;;;4.93;;
43363;SDS011;40636;52.424;-1.948;2023-07-02T04:07:06;10.07;;;3.75;;
43363;SDS011;40636;52.424;-1.948;2023-07-02T04:09:33;8.32;;;3.88;;
43363;SDS011;40636;52.424;-1.948;2023-07-02T04:12:00;9.70;;;3.95;;
43363;SDS011;40636;52.424;-1.948;2023-07-02T04:14:27;12.02;;;4.55;;
43363;SDS011;40636;52.424;-1.948;2023-07-02T04:16:54;13.90;;;4.40;;
43363;SDS011;40636;52.424;-1.948;2023-07-02T04:19:21;7.57;;;3.85;;
43363;SDS011;40636;52.424;-1.948;2023-07-02T04:21:48;11.65;;;4.15;;
43363;SDS011;40636;52.424;-1.948;2023-07-02T04:24:15;8.38;;;3.97;;
43363;SDS011;40636;52.424;-1.948;2023-07-02T04:26:42;9.77;;;4.18;;
43363;SDS011;40636;52.424;-1.948;2023-07-02T04:29:29;17.33;;;4.90;;
43363;SDS011;40636;52.424;-1.948;2023-07-02T04:31:56;7.63;;;4.07;;
43363;SDS011;40636;52.424;-1.948;2023-07-02T04:34:23;8.55;;;3.80;;
43363;SDS011;40636;52.424;-1.948;2023-07-02T04:36:50;7.25;;;3.35;;
43363;SDS011;40636;52.424;-1.948;2023-07-02T04:39:19;12.82;;;3.92;;
43363;SDS011;40636;52.424;-1.948;2023-07-02T04:41:46;12.82;;;5.38;;
43363;SDS011;40636;52.424;-1.948;2023-07-02T04:44:13;9.32;;;5.00;;
43363;SDS011;40636;52.424;-1.948;2023-07-02T04:46:39;12.40;;;5.57;;
43363;SDS011;40636;52.424;-1.948;2023-07-02T04:49:06;14.18;;;3.92;;
43363;SDS011;40636;52.424;-1.948;2023-07-02T04:51:33;7.22;;;3.25;;
43363;SDS011;40636;52.424;-1.948;2023-07-02T04:54:00;9.93;;;4.55;;
43363;SDS011;40636;52.424;-1.948;2023-07-02T04:56:26;12.75;;;3.97;;
43363;SDS011;40636;52.424;-1.948;2023-07-02T04:58:53;11.30;;;3.80;;
43363;SDS011;40636;52.424;-1.948;2023-07-02T05:01:20;8.38;;;3.45;;
43363;SDS011;40636;52.424;-1.948;2023-07-02T05:03:47;11.45;;;4.68;;
43363;SDS011;40636;52.424;-1.948;2023-07-02T05:06:14;8.43;;;4.32;;
43363;SDS011;40636;52.424;-1.948;2023-07-02T05:08:40;8.88;;;3.78;;
43363;SDS011;40636;52.424;-1.948;2023-07-02T05:11:08;5.43;;;2.88;;
43363;SDS011;40636;52.424;-1.948;2023-07-02T05:13:35;7.97;;;3.63;;
43363;SDS011;40636;52.424;-1.948;2023-07-02T05:16:02;8.40;;;3.47;;
43363;SDS011;40636;52.424;-1.948;2023-07-02T05:18:29;11.93;;;4.28;;
43363;SDS011;40636;52.424;-1.948;2023-07-02T05:20:55;10.13;;;2.80;;
43363;SDS011;40636;52.424;-1.948;2023-07-02T05:23:22;20.42;;;5.82;;
43363;SDS011;40636;52.424;-1.948;2023-07-02T05:25:49;9.45;;;3.75;;
43363;SDS011;40636;52.424;-1.948;2023-07-02T05:28:16;8.65;;;3.35;;
43363;SDS011;40636;52.424;-1.948;2023-07-02T05:30:42;7.75;;;4.15;;
43363;SDS011;40636;52.424;-1.948;2023-07-02T05:33:09;7.30;;;3.30;;
43363;SDS011;40636;52.424;-1.948;2023-07-02T05:35:36;10.80;;;3.83;;
43363;SDS011;40636;52.424;-1.948;2023-07-02T05:38:03;8.65;;;3.50;;
43363;SDS011;40636;52.424;-1.948;2023-07-02T05:40:30;7.28;;;3.95;;
43363;SDS011;40636;52.424;-1.948;2023-07-02T05:42:57;12.00;;;3.97;;
43363;SDS011;40636;52.424;-1.948;2023-07-02T05:45:24;14.18;;;4.28;;
43363;SDS011;40636;52.424;-1.948;2023-07-02T05:47:50;5.35;;;2.97;;
43363;SDS011;40636;52.424;-1.948;2023-07-02T05:50:17;12.15;;;3.85;;
43363;SDS011;40636;52.424;-1.948;2023-07-02T05:52:44;8.75;;;3.25;;
43363;SDS011;40636;52.424;-1.948;2023-07-02T05:55:11;9.82;;;3.88;;
43363;SDS011;40636;52.424;-1.948;2023-07-02T05:57:38;6.85;;;2.85;;
43363;SDS011;40636;52.424;-1.948;2023-07-02T06:00:05;10.25;;;3.22;;
43363;SDS011;40636;52.424;-1.948;2023-07-02T06:02:32;10.98;;;3.90;;
43363;SDS011;40636;52.424;-1.948;2023-07-02T06:05:00;7.80;;;3.75;;
43363;SDS011;40636;52.424;-1.948;2023-07-02T06:07:28;9.88;;;3.78;;
43363;SDS011;40636;52.424;-1.948;2023-07-02T06:09:55;6.93;;;3.75;;
43363;SDS011;40636;52.424;-1.948;2023-07-02T06:12:22;10.48;;;3.15;;
43363;SDS011;40636;52.424;-1.948;2023-07-02T06:14:49;8.52;;;3.72;;
43363;SDS011;40636;52.424;-1.948;2023-07-02T06:17:15;8.30;;;4.10;;
43363;SDS011;40636;52.424;-1.948;2023-07-02T06:19:44;12.15;;;3.92;;
43363;SDS011;40636;52.424;-1.948;2023-07-02T06:22:11;8.40;;;3.03;;
43363;SDS011;40636;52.424;-1.948;2023-07-02T06:24:37;8.15;;;2.60;;
43363;SDS011;40636;52.424;-1.948;2023-07-02T06:27:04;8.80;;;3.22;;
43363;SDS011;40636;52.424;-1.948;2023-07-02T06:29:31;8.38;;;4.25;;
43363;SDS011;40636;52.424;-1.948;2023-07-02T06:31:58;6.90;;;2.47;;
43363;SDS011;40636;52.424;-1.948;2023-07-02T06:34:24;5.65;;;2.88;;
43363;SDS011;40636;52.424;-1.948;2023-07-02T06:36:51;8.05;;;2.85;;
43363;SDS011;40636;52.424;-1.948;2023-07-02T06:39:18;7.55;;;2.85;;
43363;SDS011;40636;52.424;-1.948;2023-07-02T06:41:45;10.77;;;2.75;;
43363;SDS011;40636;52.424;-1.948;2023-07-02T06:44:11;10.30;;;3.55;;
43363;SDS011;40636;52.424;-1.948;2023-07-02T06:46:38;6.30;;;3.47;;
43363;SDS011;40636;52.424;-1.948;2023-07-02T06:49:05;12.63;;;3.53;;
43363;SDS011;40636;52.424;-1.948;2023-07-02T06:51:32;10.30;;;2.78;;
43363;SDS011;40636;52.424;-1.948;2023-07-02T06:54:00;11.05;;;2.83;;
43363;SDS011;40636;52.424;-1.948;2023-07-02T06:56:27;6.70;;;3.03;;
43363;SDS011;40636;52.424;-1.948;2023-07-02T06:58:54;5.97;;;2.50;;
43363;SDS011;40636;52.424;-1.948;2023-07-02T07:01:20;10.30;;;3.35;;
43363;SDS011;40636;52.424;-1.948;2023-07-02T07:03:47;4.68;;;2.22;;
43363;SDS011;40636;52.424;-1.948;2023-07-02T07:06:14;7.45;;;2.20;;
43363;SDS011;40636;52.424;-1.948;2023-07-02T07:08:41;4.30;;;2.10;;
43363;SDS011;40636;52.424;-1.948;2023-07-02T07:11:08;11.98;;;3.13;;
43363;SDS011;40636;52.424;-1.948;2023-07-02T07:13:35;8.43;;;3.20;;
43363;SDS011;40636;52.424;-1.948;2023-07-02T07:16:01;9.38;;;3.75;;
43363;SDS011;40636;52.424;-1.948;2023-07-02T07:18:28;6.43;;;2.10;;
43363;SDS011;40636;52.424;-1.948;2023-07-02T07:20:58;12.82;;;3.13;;
43363;SDS011;40636;52.424;-1.948;2023-07-02T07:23:25;11.73;;;3.50;;
43363;SDS011;40636;52.424;-1.948;2023-07-02T07:25:52;10.88;;;3.05;;
43363;SDS011;40636;52.424;-1.948;2023-07-02T07:28:18;9.48;;;2.60;;
43363;SDS011;40636;52.424;-1.948;2023-07-02T07:30:45;6.70;;;2.28;;
43363;SDS011;40636;52.424;-1.948;2023-07-02T07:33:12;5.43;;;3.00;;
43363;SDS011;40636;52.424;-1.948;2023-07-02T07:35:39;8.27;;;2.80;;
43363;SDS011;40636;52.424;-1.948;2023-07-02T07:38:06;6.00;;;2.30;;
43363;SDS011;40636;52.424;-1.948;2023-07-02T07:40:33;13.57;;;2.83;;
43363;SDS011;40636;52.424;-1.948;2023-07-02T07:42:59;9.75;;;2.55;;
43363;SDS011;40636;52.424;-1.948;2023-07-02T07:45:26;6.47;;;3.58;;
43363;SDS011;40636;52.424;-1.948;2023-07-02T07:47:53;6.35;;;2.40;;
43363;SDS011;40636;52.424;-1.948;2023-07-02T07:50:20;7.22;;;2.97;;
43363;SDS011;40636;52.424;-1.948;2023-07-02T07:52:47;5.88;;;1.90;;
43363;SDS011;40636;52.424;-1.948;2023-07-02T07:55:14;6.78;;;2.25;;
43363;SDS011;40636;52.424;-1.948;2023-07-02T07:57:42;5.65;;;2.63;;
43363;SDS011;40636;52.424;-1.948;2023-07-02T08:00:09;7.75;;;2.90;;
43363;SDS011;40636;52.424;-1.948;2023-07-02T08:02:37;7.78;;;2.75;;
43363;SDS011;40636;52.424;-1.948;2023-07-02T08:05:08;11.15;;;2.97;;
43363;SDS011;40636;52.424;-1.948;2023-07-02T08:07:35;5.40;;;2.45;;
43363;SDS011;40636;52.424;-1.948;2023-07-02T08:10:02;7.35;;;2.78;;
43363;SDS011;40636;52.424;-1.948;2023-07-02T08:12:29;6.95;;;2.53;;
43363;SDS011;40636;52.424;-1.948;2023-07-02T08:14:56;7.00;;;2.97;;
43363;SDS011;40636;52.424;-1.948;2023-07-02T08:17:24;9.75;;;2.97;;
43363;SDS011;40636;52.424;-1.948;2023-07-02T08:19:51;8.95;;;2.55;;
43363;SDS011;40636;52.424;-1.948;2023-07-02T08:22:17;11.00;;;3.28;;
43363;SDS011;40636;52.424;-1.948;2023-07-02T08:24:44;7.93;;;2.47;;
43363;SDS011;40636;52.424;-1.948;2023-07-02T08:27:11;5.00;;;2.03;;
43363;SDS011;40636;52.424;-1.948;2023-07-02T08:29:40;8.73;;;2.58;;
43363;SDS011;40636;52.424;-1.948;2023-07-02T08:32:07;9.13;;;3.00;;
43363;SDS011;40636;52.424;-1.948;2023-07-02T08:34:36;8.23;;;2.72;;
43363;SDS011;40636;52.424;-1.948;2023-07-02T08:37:03;10.10;;;3.00;;
43363;SDS011;40636;52.424;-1.948;2023-07-02T08:39:30;9.35;;;2.80;;
43363;SDS011;40636;52.424;-1.948;2023-07-02T08:41:57;4.28;;;1.95;;
43363;SDS011;40636;52.424;-1.948;2023-07-02T08:44:24;8.52;;;2.75;;
43363;SDS011;40636;52.424;-1.948;2023-07-02T08:46:52;4.35;;;2.42;;
43363;SDS011;40636;52.424;-1.948;2023-07-02T08:49:22;11.43;;;2.80;;
43363;SDS011;40636;52.424;-1.948;2023-07-02T08:51:50;7.10;;;2.35;;
43363;SDS011;40636;52.424;-1.948;2023-07-02T08:54:17;7.53;;;1.88;;
43363;SDS011;40636;52.424;-1.948;2023-07-02T08:56:44;10.00;;;2.03;;
43363;SDS011;40636;52.424;-1.948;2023-07-02T08:59:13;6.22;;;1.80;;
43363;SDS011;40636;52.424;-1.948;2023-07-02T09:04:37;10.07;;;2.15;;
43363;SDS011;40636;52.424;-1.948;2023-07-02T09:09:32;3.25;;;1.45;;
43363;SDS011;40636;52.424;-1.948;2023-07-02T09:12:00;4.38;;;1.60;;
43363;SDS011;40636;52.424;-1.948;2023-07-02T09:14:30;5.15;;;2.05;;
43363;SDS011;40636;52.424;-1.948;2023-07-02T09:17:04;9.70;;;1.95;;
43363;SDS011;40636;52.424;-1.948;2023-07-02T09:19:33;7.38;;;2.05;;
43363;SDS011;40636;52.424;-1.948;2023-07-02T09:22:00;7.63;;;2.47;;
43363;SDS011;40636;52.424;-1.948;2023-07-02T09:24:30;4.13;;;1.50;;
43363;SDS011;40636;52.424;-1.948;2023-07-02T09:26:59;4.00;;;1.70;;
43363;SDS011;40636;52.424;-1.948;2023-07-02T09:29:27;7.68;;;2.70;;
43363;SDS011;40636;52.424;-1.948;2023-07-02T09:31:56;9.43;;;2.63;;
43363;SDS011;40636;52.424;-1.948;2023-07-02T09:34:35;6.78;;;1.98;;
43363;SDS011;40636;52.424;-1.948;2023-07-02T09:37:04;6.18;;;2.15;;
43363;SDS011;40636;52.424;-1.948;2023-07-02T09:39:33;6.07;;;2.35;;
43363;SDS011;40636;52.424;-1.948;2023-07-02T09:42:02;7.57;;;1.77;;
43363;SDS011;40636;52.424;-1.948;2023-07-02T09:44:33;4.40;;;2.38;;
43363;SDS011;40636;52.424;-1.948;2023-07-02T09:47:02;5.90;;;2.38;;
43363;SDS011;40636;52.424;-1.948;2023-07-02T09:49:34;8.45;;;1.73;;
43363;SDS011;40636;52.424;-1.948;2023-07-02T09:52:05;8.25;;;1.83;;
43363;SDS011;40636;52.424;-1.948;2023-07-02T09:54:41;4.43;;;2.13;;
43363;SDS011;40636;52.424;-1.948;2023-07-02T09:57:08;6.20;;;1.75;;
43363;SDS011;40636;52.424;-1.948;2023-07-02T09:59:35;4.30;;;1.60;;
43363;SDS011;40636;52.424;-1.948;2023-07-02T10:02:02;6.50;;;1.38;;
43363;SDS011;40636;52.424;-1.948;2023-07-02T10:04:39;4.80;;;1.20;;
43363;SDS011;40636;52.424;-1.948;2023-07-02T10:07:10;9.48;;;2.83;;
43363;SDS011;40636;52.424;-1.948;2023-07-02T10:12:18;7.88;;;2.67;;
43363;SDS011;40636;52.424;-1.948;2023-07-02T10:14:47;9.57;;;2.05;;
43363;SDS011;40636;52.424;-1.948;2023-07-02T10:19:52;4.20;;;1.45;;
43363;SDS011;40636;52.424;-1.948;2023-07-02T10:22:20;7.35;;;2.00;;
43363;SDS011;40636;52.424;-1.948;2023-07-02T10:24:51;3.38;;;1.48;;
43363;SDS011;40636;52.424;-1.948;2023-07-02T10:27:20;4.22;;;1.40;;
43363;SDS011;40636;52.424;-1.948;2023-07-02T10:29:50;2.80;;;1.00;;
43363;SDS011;40636;52.424;-1.948;2023-07-02T10:32:29;4.50;;;1.73;;
43363;SDS011;40636;52.424;-1.948;2023-07-02T10:34:57;6.40;;;1.90;;
43363;SDS011;40636;52.424;-1.948;2023-07-02T10:37:26;4.07;;;1.25;;
43363;SDS011;40636;52.424;-1.948;2023-07-02T10:39:53;3.78;;;1.42;;
43363;SDS011;40636;52.424;-1.948;2023-07-02T10:42:27;6.70;;;1.60;;
43363;SDS011;40636;52.424;-1.948;2023-07-02T10:44:55;4.47;;;1.02;;
43363;SDS011;40636;52.424;-1.948;2023-07-02T10:47:21;5.40;;;1.70;;
43363;SDS011;40636;52.424;-1.948;2023-07-02T10:49:48;4.78;;;2.15;;
43363;SDS011;40636;52.424;-1.948;2023-07-02T10:52:15;10.73;;;2.08;;
43363;SDS011;40636;52.424;-1.948;2023-07-02T10:54:43;6.78;;;1.40;;
43363;SDS011;40636;52.424;-1.948;2023-07-02T10:57:12;2.65;;;1.50;;
43363;SDS011;40636;52.424;-1.948;2023-07-02T10:59:42;5.40;;;1.17;;
43363;SDS011;40636;52.424;-1.948;2023-07-02T11:02:55;6.25;;;2.05;;
43363;SDS011;40636;52.424;-1.948;2023-07-02T11:05:25;3.80;;;1.33;;
43363;SDS011;40636;52.424;-1.948;2023-07-02T11:08:07;7.00;;;1.50;;
43363;SDS011;40636;52.424;-1.948;2023-07-02T11:10:34;5.15;;;1.48;;
43363;SDS011;40636;52.424;-1.948;2023-07-02T11:13:11;6.35;;;1.65;;
43363;SDS011;40636;52.424;-1.948;2023-07-02T11:15:39;3.30;;;1.40;;
43363;SDS011;40636;52.424;-1.948;2023-07-02T11:18:11;6.57;;;1.38;;
43363;SDS011;40636;52.424;-1.948;2023-07-02T11:20:43;4.45;;;2.05;;
43363;SDS011;40636;52.424;-1.948;2023-07-02T11:23:18;6.65;;;2.22;;
43363;SDS011;40636;52.424;-1.948;2023-07-02T11:25:57;5.15;;;1.65;;
43363;SDS011;40636;52.424;-1.948;2023-07-02T11:28:27;10.07;;;2.28;;
43363;SDS011;40636;52.424;-1.948;2023-07-02T11:30:56;3.00;;;1.25;;
43363;SDS011;40636;52.424;-1.948;2023-07-02T11:33:34;5.38;;;1.20;;
43363;SDS011;40636;52.424;-1.948;2023-07-02T11:36:02;5.78;;;1.70;;
43363;SDS011;40636;52.424;-1.948;2023-07-02T11:38:30;6.22;;;1.90;;
43363;SDS011;40636;52.424;-1.948;2023-07-02T11:40:57;7.80;;;1.60;;
43363;SDS011;40636;52.424;-1.948;2023-07-02T11:43:24;2.83;;;1.42;;
43363;SDS011;40636;52.424;-1.948;2023-07-02T11:45:52;3.75;;;1.73;;
43363;SDS011;40636;52.424;-1.948;2023-07-02T11:48:19;4.90;;;1.65;;
43363;SDS011;40636;52.424;-1.948;2023-07-02T11:50:46;4.40;;;1.40;;
43363;SDS011;40636;52.424;-1.948;2023-07-02T11:53:12;3.05;;;1.60;;
43363;SDS011;40636;52.424;-1.948;2023-07-02T11:55:40;5.47;;;1.60;;
43363;SDS011;40636;52.424;-1.948;2023-07-02T11:58:07;3.85;;;1.08;;
43363;SDS011;40636;52.424;-1.948;2023-07-02T12:00:34;2.78;;;1.30;;
43363;SDS011;40636;52.424;-1.948;2023-07-02T12:03:01;3.55;;;1.30;;
43363;SDS011;40636;52.424;-1.948;2023-07-02T12:05:29;6.80;;;1.60;;
43363;SDS011;40636;52.424;-1.948;2023-07-02T12:07:58;4.07;;;1.77;;
43363;SDS011;40636;52.424;-1.948;2023-07-02T12:10:28;4.40;;;1.08;;
43363;SDS011;40636;52.424;-1.948;2023-07-02T12:12:55;6.60;;;1.52;;
43363;SDS011;40636;52.424;-1.948;2023-07-02T12:15:21;5.68;;;1.38;;
43363;SDS011;40636;52.424;-1.948;2023-07-02T12:17:48;3.03;;;1.48;;
43363;SDS011;40636;52.424;-1.948;2023-07-02T12:20:15;5.20;;;1.13;;
43363;SDS011;40636;52.424;-1.948;2023-07-02T12:22:42;2.80;;;1.25;;
43363;SDS011;40636;52.424;-1.948;2023-07-02T12:25:10;3.13;;;1.08;;
43363;SDS011;40636;52.424;-1.948;2023-07-02T12:27:37;4.40;;;1.50;;
43363;SDS011;40636;52.424;-1.948;2023-07-02T12:30:04;4.05;;;2.33;;
43363;SDS011;40636;52.424;-1.948;2023-07-02T12:32:32;1.75;;;1.23;;
43363;SDS011;40636;52.424;-1.948;2023-07-02T12:34:59;1.83;;;0.98;;
43363;SDS011;40636;52.424;-1.948;2023-07-02T12:37:26;6.10;;;1.30;;
43363;SDS011;40636;52.424;-1.948;2023-07-02T12:39:53;2.33;;;1.30;;
43363;SDS011;40636;52.424;-1.948;2023-07-02T12:42:20;3.83;;;0.80;;
43363;SDS011;40636;52.424;-1.948;2023-07-02T12:44:47;4.85;;;1.70;;
43363;SDS011;40636;52.424;-1.948;2023-07-02T12:47:14;4.07;;;1.02;;
43363;SDS011;40636;52.424;-1.948;2023-07-02T12:49:40;4.15;;;1.30;;
43363;SDS011;40636;52.424;-1.948;2023-07-02T12:52:07;3.33;;;1.70;;
43363;SDS011;40636;52.424;-1.948;2023-07-02T12:54:34;3.67;;;1.60;;
43363;SDS011;40636;52.424;-1.948;2023-07-02T12:57:01;5.03;;;1.23;;
43363;SDS011;40636;52.424;-1.948;2023-07-02T12:59:27;6.72;;;1.10;;
43363;SDS011;40636;52.424;-1.948;2023-07-02T13:01:54;6.38;;;1.60;;
43363;SDS011;40636;52.424;-1.948;2023-07-02T13:04:21;6.35;;;1.00;;
43363;SDS011;40636;52.424;-1.948;2023-07-02T13:06:48;4.30;;;1.60;;
43363;SDS011;40636;52.424;-1.948;2023-07-02T13:09:15;5.78;;;1.10;;
43363;SDS011;40636;52.424;-1.948;2023-07-02T13:11:42;6.10;;;1.40;;
43363;SDS011;40636;52.424;-1.948;2023-07-02T13:14:09;4.05;;;1.50;;
43363;SDS011;40636;52.424;-1.948;2023-07-02T13:16:35;3.88;;;1.45;;
43363;SDS011;40636;52.424;-1.948;2023-07-02T13:19:03;4.32;;;1.48;;
43363;SDS011;40636;52.424;-1.948;2023-07-02T13:21:30;4.28;;;1.08;;
43363;SDS011;40636;52.424;-1.948;2023-07-02T13:23:57;3.67;;;1.73;;
43363;SDS011;40636;52.424;-1.948;2023-07-02T13:26:23;4.82;;;1.13;;
43363;SDS011;40636;52.424;-1.948;2023-07-02T13:28:53;3.50;;;1.63;;
43363;SDS011;40636;52.424;-1.948;2023-07-02T13:31:20;3.30;;;1.10;;
43363;SDS011;40636;52.424;-1.948;2023-07-02T13:33:47;3.30;;;1.10;;
43363;SDS011;40636;52.424;-1.948;2023-07-02T13:36:16;4.07;;;1.05;;
43363;SDS011;40636;52.424;-1.948;2023-07-02T13:38:43;6.50;;;1.67;;
43363;SDS011;40636;52.424;-1.948;2023-07-02T13:41:10;7.50;;;1.00;;
43363;SDS011;40636;52.424;-1.948;2023-07-02T13:43:37;4.07;;;1.85;;
43363;SDS011;40636;52.424;-1.948;2023-07-02T13:46:04;4.90;;;1.45;;
43363;SDS011;40636;52.424;-1.948;2023-07-02T13:48:31;4.25;;;1.27;;
43363;SDS011;40636;52.424;-1.948;2023-07-02T13:50:58;3.40;;;1.00;;
43363;SDS011;40636;52.424;-1.948;2023-07-02T13:53:25;5.13;;;1.95;;
43363;SDS011;40636;52.424;-1.948;2023-07-02T13:55:52;5.28;;;1.42;;
43363;SDS011;40636;52.424;-1.948;2023-07-02T13:58:19;3.83;;;1.15;;
43363;SDS011;40636;52.424;-1.948;2023-07-02T14:00:55;6.50;;;1.75;;
43363;SDS011;40636;52.424;-1.948;2023-07-02T14:03:22;8.32;;;1.40;;
43363;SDS011;40636;52.424;-1.948;2023-07-02T14:05:49;2.25;;;1.10;;
43363;SDS011;40636;52.424;-1.948;2023-07-02T14:08:17;3.08;;;1.20;;
43363;SDS011;40636;52.424;-1.948;2023-07-02T14:10:44;3.15;;;1.02;;
43363;SDS011;40636;52.424;-1.948;2023-07-02T14:13:11;6.07;;;1.42;;
43363;SDS011;40636;52.424;-1.948;2023-07-02T14:15:38;3.33;;;1.17;;
43363;SDS011;40636;52.424;-1.948;2023-07-02T14:18:05;2.72;;;1.13;;
43363;SDS011;40636;52.424;-1.948;2023-07-02T14:20:32;4.38;;;1.33;;
43363;SDS011;40636;52.424;-1.948;2023-07-02T14:22:59;5.25;;;1.27;;
43363;SDS011;40636;52.424;-1.948;2023-07-02T14:25:26;5.05;;;1.65;;
43363;SDS011;40636;52.424;-1.948;2023-07-02T14:28:06;2.53;;;0.93;;
43363;SDS011;40636;52.424;-1.948;2023-07-02T14:30:34;4.30;;;1.48;;
43363;SDS011;40636;52.424;-1.948;2023-07-02T14:33:00;4.15;;;1.48;;
43363;SDS011;40636;52.424;-1.948;2023-07-02T14:35:27;7.07;;;1.77;;
43363;SDS011;40636;52.424;-1.948;2023-07-02T14:37:56;1.55;;;0.88;;
43363;SDS011;40636;52.424;-1.948;2023-07-02T14:40:24;4.40;;;1.50;;
43363;SDS011;40636;52.424;-1.948;2023-07-02T14:42:51;6.45;;;1.17;;
43363;SDS011;40636;52.424;-1.948;2023-07-02T14:45:18;6.05;;;1.55;;
43363;SDS011;40636;52.424;-1.948;2023-07-02T14:47:44;2.95;;;1.17;;